Time;durP1;ratioP1;P1;durP2;ratioP2;P2;SDS_P1;SDS_P2;PMS_P1;PMS_P2;Temp;Humidity;BMP_temperature;BMP_pressure;BME280_temperature;BME280_humidity;BME280_pressure;Samples;Min_cycle;Max_cycle;Signal;HPM_P1;HPM_P2
2023/05/21 00:01:06;;;;;;;6.90;4.70;;;;;;;13.51;68.94;101340.75;103981;277;39622;-72
2023/05/21 00:03:49;;;;;;;6.30;4.60;;;;;;;13.47;69.08;101334.40;104037;277;39551;-73
2023/05/21 00:06:27;;;;;;;6.90;5.40;;;;;;;13.41;69.18;101336.36;104058;277;38365;-73
2023/05/21 00:09:02;;;;;;;5.80;4.60;;;;;;;13.36;69.24;101339.70;104072;277;38496;-74
2023/05/21 00:11:38;;;;;;;5.80;4.60;;;;;;;13.32;69.42;101335.27;104016;276;38295;-72
2023/05/21 00:14:17;;;;;;;5.20;4.50;;;;;;;13.28;69.63;101334.91;104090;277;39409;-75
2023/05/21 00:16:57;;;;;;;6.80;4.90;;;;;;;13.23;69.61;101337.34;104047;277;38246;-73
2023/05/21 00:19:32;;;;;;;5.80;4.50;;;;;;;13.19;69.87;101333.05;104074;276;39672;-71
2023/05/21 00:22:08;;;;;;;6.50;4.80;;;;;;;13.18;70.02;101338.16;104063;277;38271;-74
2023/05/21 00:24:46;;;;;;;7.30;4.50;;;;;;;13.17;70.05;101334.86;104044;277;39623;-74
2023/05/21 00:27:21;;;;;;;5.20;4.70;;;;;;;13.16;70.10;101334.72;103874;279;39272;-73
2023/05/21 00:29:57;;;;;;;7.90;4.80;;;;;;;13.13;70.19;101334.66;104026;276;38232;-74
2023/05/21 00:32:35;;;;;;;4.80;4.20;;;;;;;13.09;70.31;101339.86;104054;277;39673;-73
2023/05/21 00:35:11;;;;;;;5.60;4.20;;;;;;;13.06;70.44;101342.23;104014;277;39490;-73
2023/05/21 00:37:46;;;;;;;5.80;4.50;;;;;;;13.04;70.50;101341.27;104002;277;38230;-74
2023/05/21 00:40:21;;;;;;;5.90;4.40;;;;;;;13.02;70.47;101342.55;103995;276;38599;-74
2023/05/21 00:42:55;;;;;;;6.30;4.50;;;;;;;13.00;70.48;101344.19;103976;277;38325;-74
2023/05/21 00:45:32;;;;;;;5.70;4.80;;;;;;;12.95;70.66;101344.71;104009;265;38302;-71
2023/05/21 00:48:08;;;;;;;9.80;6.30;;;;;;;12.87;70.80;101343.20;104004;277;39604;-73
2023/05/21 00:50:43;;;;;;;7.00;4.80;;;;;;;12.81;70.63;101345.48;103918;277;175145;-74
2023/05/21 00:53:20;;;;;;;7.70;4.50;;;;;;;12.77;71.04;101346.66;104034;276;39418;-73
2023/05/21 00:55:54;;;;;;;6.40;4.30;;;;;;;12.72;71.09;101346.15;104052;277;38912;-72
2023/05/21 00:58:32;;;;;;;6.10;4.60;;;;;;;12.65;71.19;101347.58;104072;277;38519;-73
2023/05/21 01:01:12;;;;;;;6.30;4.40;;;;;;;12.59;71.29;101355.83;104091;276;38280;-73
2023/05/21 01:03:48;;;;;;;8.50;4.40;;;;;;;12.52;71.36;101358.48;104079;277;38617;-72
2023/05/21 01:06:25;;;;;;;6.60;4.50;;;;;;;12.46;71.48;101352.73;104085;277;39142;-71
2023/05/21 01:09:05;;;;;;;5.30;4.40;;;;;;;12.39;71.78;101351.52;104029;277;38223;-73
2023/05/21 01:11:43;;;;;;;6.60;5.10;;;;;;;12.35;71.93;101345.34;104057;277;39648;-74
2023/05/21 01:14:18;;;;;;;7.20;5.40;;;;;;;12.29;72.08;101346.91;103935;277;188619;-73
2023/05/21 01:16:52;;;;;;;8.20;4.80;;;;;;;12.25;72.54;101346.89;104035;277;38238;-73
2023/05/21 01:19:31;;;;;;;5.80;4.60;;;;;;;12.21;72.63;101343.33;104056;277;38452;-73
2023/05/21 01:22:10;;;;;;;9.30;5.20;;;;;;;12.18;72.73;101342.17;104036;277;38352;-73
2023/05/21 01:24:47;;;;;;;5.30;4.80;;;;;;;12.12;72.85;101343.92;103924;277;175222;-72
2023/05/21 01:27:21;;;;;;;5.80;4.80;;;;;;;12.08;72.90;101341.23;104048;277;38494;-72
2023/05/21 01:29:58;;;;;;;8.00;5.10;;;;;;;12.06;73.07;101342.85;103988;277;38274;-73
2023/05/21 01:32:35;;;;;;;6.50;4.90;;;;;;;12.00;73.23;101343.90;104028;277;38229;-72
2023/05/21 01:35:11;;;;;;;5.80;4.70;;;;;;;11.93;73.40;101342.18;104017;277;39663;-73
2023/05/21 01:37:49;;;;;;;7.80;5.50;;;;;;;11.89;73.63;101343.70;104061;277;39383;-72
2023/05/21 01:40:28;;;;;;;6.70;4.70;;;;;;;11.86;73.84;101345.70;104015;277;38233;-73
2023/05/21 01:43:01;;;;;;;;;;;;;;;11.85;74.03;101342.58;104090;277;38380;-71
2023/05/21 01:45:35;;;;;;;8.50;5.40;;;;;;;11.78;74.10;101340.83;104015;277;38283;-70
2023/05/21 01:48:16;;;;;;;6.20;5.60;;;;;;;11.75;74.03;101337.92;103804;277;40080;-72
2023/05/21 01:50:54;;;;;;;8.20;5.60;;;;;;;11.71;74.20;101337.35;104002;277;38407;-72
2023/05/21 01:53:30;;;;;;;6.50;4.80;;;;;;;11.68;74.52;101336.91;104041;277;38415;-72
2023/05/21 01:56:05;;;;;;;7.50;4.70;;;;;;;11.63;74.61;101337.38;104053;277;38715;-74
2023/05/21 01:58:42;;;;;;;9.00;5.60;;;;;;;11.59;74.68;101340.45;104044;277;38252;-73
2023/05/21 02:01:16;;;;;;;8.30;5.20;;;;;;;11.58;74.89;101339.27;104041;277;39901;-71
2023/05/21 02:03:50;;;;;;;10.30;6.00;;;;;;;11.57;74.90;101339.48;103853;277;38388;-73
2023/05/21 02:06:30;;;;;;;6.40;5.40;;;;;;;11.53;74.80;101336.61;104027;277;38232;-72
2023/05/21 02:09:04;;;;;;;6.40;4.60;;;;;;;11.51;74.79;101332.12;104016;277;38371;-74
2023/05/21 02:11:41;;;;;;;5.00;4.40;;;;;;;11.48;74.98;101336.56;104068;277;38281;-74
2023/05/21 02:14:16;;;;;;;7.30;4.70;;;;;;;11.46;75.13;101336.08;104004;277;38236;-73
2023/05/21 02:16:52;;;;;;;7.50;5.40;;;;;;;11.43;75.11;101331.79;104033;277;39390;-73
2023/05/21 02:19:26;;;;;;;7.40;4.50;;;;;;;11.42;75.30;101333.23;104004;277;38306;-74
2023/05/21 02:22:03;;;;;;;7.70;5.10;;;;;;;11.40;75.25;101326.82;104001;277;38677;-73
2023/05/21 02:24:39;;;;;;;5.70;4.70;;;;;;;11.36;75.25;101325.70;103955;277;38256;-73
2023/05/21 02:27:16;;;;;;;5.80;4.10;;;;;;;11.32;75.35;101325.61;103968;277;39429;-73
2023/05/21 02:29:51;;;;;;;7.30;4.90;;;;;;;11.32;75.55;101325.09;104013;277;38621;-73
2023/05/21 02:32:26;;;;;;;6.80;4.70;;;;;;;11.33;75.53;101327.34;104016;277;38340;-74
2023/05/21 02:35:02;;;;;;;5.90;4.40;;;;;;;11.33;75.57;101322.09;103905;277;175200;-73
2023/05/21 02:37:45;;;;;;;6.60;5.10;;;;;;;11.31;75.61;101323.00;103979;277;39416;-73
2023/05/21 02:40:23;;;;;;;5.40;4.70;;;;;;;11.29;75.54;101322.36;103945;277;38681;-73
2023/05/21 02:42:58;;;;;;;7.00;4.60;;;;;;;11.28;75.70;101318.23;104031;277;39417;-72
2023/05/21 02:45:39;;;;;;;6.00;4.40;;;;;;;11.27;75.75;101319.64;103988;277;38406;-73
2023/05/21 02:48:13;;;;;;;9.40;4.60;;;;;;;11.25;75.76;101318.64;103982;277;39936;-70
2023/05/21 02:50:48;;;;;;;5.80;4.10;;;;;;;11.26;75.93;101318.27;103725;277;38804;-72
2023/05/21 02:53:21;;;;;;;6.80;4.00;;;;;;;11.30;76.02;101318.51;103989;277;38285;-73
2023/05/21 02:55:57;;;;;;;7.20;4.30;;;;;;;11.34;76.03;101320.17;103934;277;39406;-73
2023/05/21 02:58:30;;;;;;;6.60;4.40;;;;;;;11.36;76.03;101324.27;103960;277;39034;-74
2023/05/21 03:01:06;;;;;;;9.40;4.90;;;;;;;11.40;75.91;101327.70;103940;277;38285;-73
2023/05/21 03:03:40;;;;;;;7.30;4.10;;;;;;;11.39;75.87;101325.45;103767;278;38410;-74
2023/05/21 03:06:16;;;;;;;5.10;4.00;;;;;;;11.41;75.99;101322.77;103943;277;40415;-73
2023/05/21 03:08:53;;;;;;;5.60;4.00;;;;;;;11.47;75.87;101323.48;103908;277;38358;-72
2023/05/21 03:11:27;;;;;;;5.00;4.30;;;;;;;11.50;75.81;101321.98;103950;277;39440;-73
2023/05/21 03:14:02;;;;;;;4.70;3.60;;;;;;;11.55;75.77;101323.81;103971;277;38477;-71
2023/05/21 03:16:40;;;;;;;6.20;4.00;;;;;;;11.57;75.70;101321.98;104006;277;39659;-72
2023/05/21 03:19:16;;;;;;;6.00;4.00;;;;;;;11.63;75.84;101320.95;104003;277;38545;-73
2023/05/21 03:21:50;;;;;;;4.40;3.70;;;;;;;11.73;75.72;101319.45;103995;277;39407;-73
2023/05/21 03:24:26;;;;;;;5.50;3.40;;;;;;;11.82;75.74;101315.91;104021;277;38506;-73
2023/05/21 03:27:01;;;;;;;9.00;4.50;;;;;;;11.91;75.69;101311.30;104019;277;38623;-73
2023/05/21 03:29:38;;;;;;;7.30;4.10;;;;;;;12.01;75.62;101309.42;103963;277;38226;-71
2023/05/21 03:32:12;;;;;;;7.00;4.40;;;;;;;12.08;75.49;101314.31;103991;277;39468;-71
2023/05/21 03:34:49;;;;;;;6.30;4.50;;;;;;;12.14;75.42;101311.85;103912;277;39400;-73
2023/05/21 03:37:23;;;;;;;5.90;3.90;;;;;;;12.26;75.38;101315.69;103948;277;39023;-73
2023/05/21 03:39:58;;;;;;;5.00;4.30;;;;;;;12.69;76.40;101312.80;103774;278;39499;-74
2023/05/21 03:42:32;;;;;;;6.70;4.30;;;;;;;13.58;77.58;101308.60;103912;325;39664;-73
2023/05/21 03:45:09;;;;;;;6.70;4.70;;;;;;;14.55;75.98;101306.19;103918;277;38557;-72
2023/05/21 03:47:43;;;;;;;6.80;4.00;;;;;;;15.46;73.89;101298.41;103927;277;38271;-73
2023/05/21 03:50:19;;;;;;;5.30;4.00;;;;;;;16.33;71.26;101296.59;103881;277;39662;-74
2023/05/21 03:52:56;;;;;;;5.90;4.60;;;;;;;17.20;69.01;101293.92;103292;277;713232;-73
2023/05/21 03:55:30;;;;;;;5.20;4.00;;;;;;;18.03;65.86;101293.84;103840;266;38368;-73
2023/05/21 03:58:04;;;;;;;4.40;3.90;;;;;;;18.78;62.70;101296.18;103922;277;38604;-73
2023/05/21 04:00:39;;;;;;;5.10;4.40;;;;;;;19.43;60.51;101295.38;103917;277;38630;-73
2023/05/21 04:03:14;;;;;;;5.80;3.90;;;;;;;19.98;57.61;101300.16;103905;277;39084;-73
2023/05/21 04:05:50;;;;;;;7.40;3.90;;;;;;;20.28;55.58;101306.92;103906;277;39562;-74
2023/05/21 04:08:32;;;;;;;8.20;4.00;;;;;;;20.38;53.64;101303.65;103905;277;39757;-74
2023/05/21 04:11:12;;;;;;;5.50;4.20;;;;;;;20.24;52.84;101304.73;103902;277;39692;-73
2023/05/21 04:13:46;;;;;;;6.20;4.00;;;;;;;19.90;52.24;101302.23;103922;277;39570;-74
2023/05/21 04:16:23;;;;;;;4.70;4.30;;;;;;;19.50;51.96;101303.42;103903;277;39667;-73
2023/05/21 04:19:00;;;;;;;5.90;4.30;;;;;;;19.10;52.04;101306.55;103819;278;38374;-73
2023/05/21 04:21:37;;;;;;;6.70;3.90;;;;;;;18.74;52.15;101307.03;103907;277;38482;-74
2023/05/21 04:24:15;;;;;;;5.10;4.00;;;;;;;18.32;52.60;101309.21;103908;277;38608;-74
2023/05/21 04:26:50;;;;;;;5.60;4.30;;;;;;;17.97;53.00;101305.84;103924;277;39874;-74
2023/05/21 04:29:24;;;;;;;5.40;4.00;;;;;;;17.72;53.58;101303.97;103764;277;38304;-71
2023/05/21 04:31:59;;;;;;;7.40;4.20;;;;;;;17.50;54.00;101301.23;103898;277;39452;-73
2023/05/21 04:34:34;;;;;;;5.10;4.00;;;;;;;17.33;54.70;101297.53;103792;277;38362;-72
2023/05/21 04:37:11;;;;;;;7.90;4.10;;;;;;;17.16;54.76;101292.38;103935;277;38481;-73
2023/05/21 04:39:47;;;;;;;5.50;3.70;;;;;;;17.00;54.80;101293.20;103695;277;38272;-73
2023/05/21 04:42:24;;;;;;;6.00;4.00;;;;;;;16.86;55.37;101291.05;103900;277;38835;-73
2023/05/21 04:45:01;;;;;;;6.10;4.00;;;;;;;16.78;55.40;101291.67;103880;277;38393;-74
2023/05/21 04:47:37;;;;;;;4.70;3.80;;;;;;;16.71;55.51;101292.12;103897;277;38242;-72
2023/05/21 04:50:12;;;;;;;7.60;4.20;;;;;;;16.74;55.87;101286.36;103830;277;174936;-73
2023/05/21 04:52:53;;;;;;;9.50;4.00;;;;;;;17.02;56.47;101279.52;103963;277;38745;-73
2023/05/21 04:55:28;;;;;;;4.60;3.50;;;;;;;17.89;57.11;101275.31;103899;277;39597;-73
2023/05/21 04:58:03;;;;;;;4.70;3.30;;;;;;;19.03;55.45;101271.74;103951;277;38688;-74
2023/05/21 05:00:41;;;;;;;9.10;4.10;;;;;;;20.20;53.69;101270.94;103954;277;39722;-74
2023/05/21 05:03:15;;;;;;;5.70;3.60;;;;;;;21.43;51.12;101270.78;103943;277;38321;-74
2023/05/21 05:05:50;;;;;;;4.80;4.00;;;;;;;22.35;47.30;101267.97;103904;277;41059;-74
2023/05/21 05:08:26;;;;;;;6.30;3.70;;;;;;;23.11;46.43;101268.02;103918;277;39386;-74
2023/05/21 05:11:01;;;;;;;5.70;3.60;;;;;;;24.04;43.93;101276.27;103927;266;38241;-72
2023/05/21 05:13:40;;;;;;;7.30;3.70;;;;;;;24.72;41.74;101273.95;103907;277;38513;-72
2023/05/21 05:16:16;;;;;;;4.20;3.00;;;;;;;25.43;40.36;101270.77;103908;266;38260;-74
2023/05/21 05:18:57;;;;;;;4.10;3.00;;;;;;;26.03;38.24;101268.38;103782;277;174384;-72
2023/05/21 05:21:34;;;;;;;4.30;3.90;;;;;;;26.67;38.24;101264.61;103944;277;39527;-74
2023/05/21 05:24:12;;;;;;;4.60;2.90;;;;;;;27.28;35.55;101265.75;103880;277;38516;-74
2023/05/21 05:26:50;;;;;;;3.90;2.70;;;;;;;27.55;34.57;101265.31;103942;277;39629;-76
2023/05/21 05:29:25;;;;;;;3.90;2.80;;;;;;;27.83;34.22;101265.14;103909;277;38348;-76
2023/05/21 05:32:00;;;;;;;4.80;2.70;;;;;;;28.28;33.51;101267.71;103948;277;38280;-75
2023/05/21 05:34:35;;;;;;;4.30;2.50;;;;;;;28.90;32.37;101265.70;103777;277;39645;-72
2023/05/21 05:37:09;;;;;;;3.50;2.90;;;;;;;29.24;31.61;101259.69;103904;277;38299;-73
2023/05/21 05:39:45;;;;;;;3.70;2.70;;;;;;;29.71;31.28;101261.80;103779;277;38812;-74
2023/05/21 05:42:23;;;;;;;4.00;2.20;;;;;;;30.20;30.70;101257.72;103925;277;38353;-75
2023/05/21 05:44:56;;;;;;;;;;;;;;;30.68;29.25;101256.14;104010;277;38257;-73
2023/05/21 05:47:35;;;;;;;2.60;2.20;;;;;;;30.84;28.81;101255.48;103971;277;38238;-73
2023/05/21 05:50:12;;;;;;;4.00;2.60;;;;;;;31.00;28.59;101257.85;103969;277;38506;-73
2023/05/21 05:52:47;;;;;;;5.60;2.20;;;;;;;31.32;27.47;101255.16;103935;277;38223;-75
2023/05/21 05:55:23;;;;;;;6.20;2.00;;;;;;;31.40;27.47;101258.58;103953;277;38580;-75
2023/05/21 05:57:59;;;;;;;3.60;2.20;;;;;;;31.74;27.02;101259.21;103985;277;38410;-74
2023/05/21 06:00:35;;;;;;;2.60;1.90;;;;;;;32.06;26.60;101255.60;103839;277;38821;-75
2023/05/21 06:03:10;;;;;;;3.60;2.30;;;;;;;32.27;26.35;101257.85;103961;277;38427;-74
2023/05/21 06:05:45;;;;;;;4.90;2.20;;;;;;;32.42;25.26;101252.74;103920;277;38369;-74
2023/05/21 06:08:19;;;;;;;4.80;1.90;;;;;;;32.68;25.14;101250.92;103933;277;40141;-75
2023/05/21 06:10:54;;;;;;;4.60;2.40;;;;;;;32.91;24.81;101248.85;103940;277;38237;-75
2023/05/21 06:13:28;;;;;;;3.00;2.10;;;;;;;33.24;24.23;101242.58;103954;277;38307;-73
2023/05/21 06:16:08;;;;;;;2.20;1.80;;;;;;;33.55;24.36;101243.92;103956;277;38237;-75
2023/05/21 06:18:45;;;;;;;3.80;2.10;;;;;;;33.99;23.63;101247.90;103963;277;38477;-73
2023/05/21 06:21:24;;;;;;;6.40;2.30;;;;;;;34.17;23.30;101251.50;103951;277;38656;-73
2023/05/21 06:23:58;;;;;;;7.60;3.10;;;;;;;34.05;23.11;101250.45;103954;277;39934;-77
2023/05/21 06:26:35;;;;;;;4.80;2.30;;;;;;;34.05;22.58;101247.02;103924;277;38379;-75
2023/05/21 06:29:10;;;;;;;4.10;2.60;;;;;;;34.03;22.81;101251.31;103952;277;38230;-74
2023/05/21 06:31:48;;;;;;;2.70;2.30;;;;;;;34.12;22.42;101251.41;103953;277;38771;-74
2023/05/21 06:34:22;;;;;;;3.50;2.30;;;;;;;34.26;22.86;101254.86;103952;265;39410;-75
2023/05/21 06:36:58;;;;;;;5.00;2.60;;;;;;;34.32;22.78;101253.35;103874;277;173964;-74
2023/05/21 06:39:35;;;;;;;4.00;2.80;;;;;;;34.57;22.02;101248.41;103830;278;39432;-75
2023/05/21 06:42:09;;;;;;;4.70;2.40;;;;;;;34.73;22.07;101243.53;103759;277;38269;-74
2023/05/21 06:44:45;;;;;;;2.70;2.40;;;;;;;34.93;21.64;101247.02;104000;277;39010;-73
2023/05/21 06:47:23;;;;;;;5.60;3.80;;;;;;;35.03;21.58;101241.60;103880;277;38263;-73
2023/05/21 06:49:57;;;;;;;5.00;3.90;;;;;;;34.94;21.10;101239.54;103987;277;38446;-73
2023/05/21 06:52:34;;;;;;;5.20;3.50;;;;;;;34.82;21.73;101235.42;103983;277;38489;-77
2023/05/21 06:55:15;;;;;;;4.40;2.30;;;;;;;34.66;21.26;101233.51;103971;277;39430;-77
2023/05/21 06:57:51;;;;;;;2.90;2.60;;;;;;;34.84;21.63;101233.13;104006;276;38547;-73
2023/05/21 07:00:26;;;;;;;3.90;2.50;;;;;;;35.09;20.85;101231.42;103950;265;38239;-74
2023/05/21 07:03:02;;;;;;;3.00;2.40;;;;;;;35.17;20.91;101226.67;103928;265;39596;-74
2023/05/21 07:05:38;;;;;;;4.50;2.10;;;;;;;35.25;21.16;101225.79;103955;277;39444;-76
2023/05/21 07:08:13;;;;;;;6.10;2.20;;;;;;;35.37;20.82;101223.95;103990;277;38718;-75
2023/05/21 07:10:48;;;;;;;2.60;2.40;;;;;;;35.32;20.01;101221.60;104009;277;38238;-74
2023/05/21 07:13:25;;;;;;;4.90;2.90;;;;;;;35.13;20.36;101218.27;103949;277;39670;-76
2023/05/21 07:15:59;;;;;;;5.70;2.30;;;;;;;35.06;20.52;101221.98;103756;279;39409;-75
2023/05/21 07:18:37;;;;;;;4.80;2.30;;;;;;;35.09;20.69;101221.63;103959;277;38508;-76
2023/05/21 07:21:16;;;;;;;4.30;2.40;;;;;;;35.12;20.20;101217.26;103928;277;38854;-74
2023/05/21 07:23:50;;;;;;;5.40;2.60;;;;;;;35.32;20.43;101220.27;103977;277;38400;-75
2023/05/21 07:26:27;;;;;;;4.20;2.60;;;;;;;35.64;20.84;101219.01;103946;277;38334;-74
2023/05/21 07:29:05;;;;;;;3.00;2.50;;;;;;;35.94;20.44;101215.75;103938;277;39501;-76
2023/05/21 07:31:39;;;;;;;3.50;2.50;;;;;;;35.99;20.10;101218.80;103993;277;38234;-75
2023/05/21 07:34:14;;;;;;;2.70;2.00;;;;;;;36.00;20.28;101215.90;103924;277;38765;-76
2023/05/21 07:36:51;;;;;;;5.30;2.30;;;;;;;36.28;20.25;101216.09;103960;277;38240;-75
2023/05/21 07:39:25;;;;;;;3.60;2.30;;;;;;;36.54;19.46;101222.86;103937;277;39383;-75
2023/05/21 07:42:05;;;;;;;3.40;2.20;;;;;;;36.54;18.86;101216.57;103776;277;38265;-76
2023/05/21 07:44:39;;;;;;;4.00;2.50;;;;;;;36.43;19.02;101215.58;103911;277;39996;-78
2023/05/21 07:47:15;;;;;;;5.50;2.20;;;;;;;36.33;19.13;101215.05;103930;277;39710;-75
2023/05/21 07:49:51;;;;;;;2.90;2.10;;;;;;;36.42;19.17;101213.70;103718;277;39609;-76
2023/05/21 07:52:37;;;;;;;2.90;2.10;;;;;;;36.61;18.94;101210.70;103945;277;38766;-77
2023/05/21 07:55:12;;;;;;;3.30;2.10;;;;;;;36.58;19.18;101206.94;103934;277;38739;-81
2023/05/21 07:57:51;;;;;;;2.70;2.40;;;;;;;36.63;18.61;101208.11;103940;277;39580;-78
2023/05/21 08:00:32;;;;;;;4.90;2.30;;;;;;;36.52;18.49;101211.04;103783;277;38568;-78
2023/05/21 08:03:07;;;;;;;3.90;2.00;;;;;;;36.59;18.57;101209.70;103982;266;38253;-78
2023/05/21 08:05:43;;;;;;;4.10;2.40;;;;;;;36.88;18.85;101210.24;103833;277;38769;-78
2023/05/21 08:08:22;;;;;;;2.30;2.10;;;;;;;37.00;18.65;101210.34;103976;278;38707;-78
2023/05/21 08:11:02;;;;;;;3.40;2.10;;;;;;;36.95;18.00;101204.92;104132;277;39153;-79
2023/05/21 08:13:41;;;;;;;3.70;2.30;;;;;;;37.20;17.91;101196.41;103891;277;38245;-81
2023/05/21 08:16:18;;;;;;;6.00;2.40;;;;;;;37.24;17.38;101197.33;104105;277;38710;-79
2023/05/21 08:18:52;;;;;;;5.40;2.20;;;;;;;37.03;17.66;101199.92;103915;279;39701;-78
2023/05/21 08:21:31;;;;;;;3.60;1.90;;;;;;;36.97;17.61;101205.21;103911;277;38475;-78
2023/05/21 08:24:08;;;;;;;4.40;1.70;;;;;;;36.84;17.50;101199.08;103880;277;39907;-78
2023/05/21 08:26:48;;;;;;;;;;;;;;;36.82;17.82;101194.46;103901;279;38753;-78
2023/05/21 08:29:28;;;;;;;3.00;1.90;;;;;;;36.92;18.22;101197.23;103910;277;39698;-77
2023/05/21 08:32:05;;;;;;;2.40;1.70;;;;;;;37.10;17.51;101186.02;103939;277;39458;-77
2023/05/21 08:34:46;;;;;;;3.80;1.80;;;;;;;37.10;17.27;101190.92;103981;277;39176;-80
2023/05/21 08:37:25;;;;;;;2.80;1.80;;;;;;;36.90;17.42;101187.71;103916;277;38705;-80
2023/05/21 08:40:02;;;;;;;2.30;1.90;;;;;;;37.04;17.23;101181.58;103885;277;39437;-80
2023/05/21 08:42:42;;;;;;;2.30;1.60;;;;;;;36.98;17.07;101186.05;103756;277;39395;-78
2023/05/21 08:45:21;;;;;;;2.90;1.70;;;;;;;36.81;16.90;101181.41;103299;277;885613;-77
2023/05/21 08:47:58;;;;;;;2.80;1.70;;;;;;;36.62;17.20;101183.62;103953;277;38297;-78
2023/05/21 08:50:33;;;;;;;2.50;1.70;;;;;;;36.66;17.07;101184.73;103980;277;39439;-80
2023/05/21 08:53:09;;;;;;;6.00;2.00;;;;;;;36.64;17.19;101185.37;103950;277;38398;-78
2023/05/21 08:55:43;;;;;;;3.20;2.00;;;;;;;36.59;17.24;101184.12;103936;277;38473;-77
2023/05/21 08:58:22;;;;;;;5.30;2.00;;;;;;;36.58;16.96;101183.65;103874;277;38755;-78
2023/05/21 09:01:01;;;;;;;3.30;1.80;;;;;;;36.31;17.35;101182.81;104045;277;38264;-77
2023/05/21 09:03:43;;;;;;;5.60;1.90;;;;;;;36.24;16.92;101181.55;104086;277;39433;-80
2023/05/21 09:06:18;;;;;;;3.80;1.40;;;;;;;36.07;17.36;101179.61;104144;277;38456;-79
2023/05/21 09:09:03;;;;;;;3.10;1.60;;;;;;;35.99;17.70;101174.28;103808;277;38744;-76
2023/05/21 09:11:41;;;;;;;3.20;1.90;;;;;;;35.79;17.94;101180.53;103991;277;38236;-79
2023/05/21 09:14:14;;;;;;;;;;;;;;;35.55;17.62;101181.86;103991;277;38818;-74
2023/05/21 09:16:59;;;;;;;3.10;1.50;;;;;;;35.05;17.23;101182.96;103910;277;38696;-75
2023/05/21 09:19:39;;;;;;;4.40;1.40;;;;;;;34.56;17.59;101179.64;103911;277;38239;-75
2023/05/21 09:22:20;;;;;;;2.70;1.80;;;;;;;34.10;17.65;101175.45;103937;277;39683;-74
2023/05/21 09:24:57;;;;;;;3.80;1.50;;;;;;;33.46;17.90;101175.33;103915;277;38451;-73
2023/05/21 09:27:37;;;;;;;2.20;1.30;;;;;;;32.88;18.20;101171.30;103940;277;39849;-74
2023/05/21 09:30:16;;;;;;;3.10;1.70;;;;;;;32.47;18.77;101176.98;103887;277;38383;-74
2023/05/21 09:32:56;;;;;;;2.10;1.40;;;;;;;32.11;18.75;101169.29;103934;277;38286;-75
2023/05/21 09:35:33;;;;;;;2.10;1.50;;;;;;;31.69;19.29;101171.25;103915;277;38227;-74
2023/05/21 09:38:12;;;;;;;2.10;1.50;;;;;;;31.30;19.52;101172.67;103956;277;38361;-75
2023/05/21 09:40:51;;;;;;;4.00;1.80;;;;;;;30.86;19.78;101164.44;103968;277;39434;-75
2023/05/21 09:43:25;;;;;;;2.50;1.60;;;;;;;30.45;20.60;101164.31;103911;277;38959;-74
2023/05/21 09:45:59;;;;;;;4.20;1.80;;;;;;;30.33;21.14;101163.80;103950;277;39635;-74
2023/05/21 09:48:42;;;;;;;2.20;1.60;;;;;;;30.14;20.86;101160.26;103967;277;38385;-74
2023/05/21 09:51:20;;;;;;;4.30;1.70;;;;;;;29.86;21.42;101162.17;103718;277;39842;-76
2023/05/21 09:53:57;;;;;;;2.40;2.00;;;;;;;29.79;22.44;101169.24;103916;277;39693;-75
2023/05/21 09:56:31;;;;;;;3.20;1.90;;;;;;;29.70;21.92;101166.45;103900;277;39489;-73
2023/05/21 09:59:05;;;;;;;5.70;1.80;;;;;;;29.55;22.00;101165.30;103959;277;39399;-75
2023/05/21 10:01:42;;;;;;;4.60;1.70;;;;;;;29.28;21.83;101169.91;103936;277;39652;-74
2023/05/21 10:04:18;;;;;;;6.70;1.60;;;;;;;29.13;21.90;101167.88;103906;277;38534;-73
2023/05/21 10:06:52;;;;;;;3.60;1.80;;;;;;;29.06;22.26;101168.67;103945;277;40045;-74
2023/05/21 10:09:26;;;;;;;2.70;1.70;;;;;;;28.79;21.83;101168.51;103826;277;174386;-74
2023/05/21 10:12:00;;;;;;;1.90;1.50;;;;;;;28.60;22.65;101156.50;103951;277;39424;-74
2023/05/21 10:14:34;;;;;;;4.20;2.00;;;;;;;28.62;22.65;101162.38;103932;277;38231;-74
2023/05/21 10:17:09;;;;;;;3.70;2.00;;;;;;;28.61;23.01;101154.24;104001;277;38511;-75
2023/05/21 10:19:44;;;;;;;4.30;2.00;;;;;;;28.62;23.05;101150.36;103963;277;39831;-76
2023/05/21 10:22:18;;;;;;;2.10;1.80;;;;;;;28.58;23.11;101153.28;103915;277;38777;-75
2023/05/21 10:24:56;;;;;;;3.80;2.00;;;;;;;28.56;22.54;101151.13;103932;277;38733;-74
2023/05/21 10:27:34;;;;;;;2.80;1.70;;;;;;;28.42;22.77;101158.14;103968;277;38307;-76
2023/05/21 10:30:14;;;;;;;4.00;1.60;;;;;;;28.37;22.88;101157.58;103791;277;39077;-74
2023/05/21 10:32:50;;;;;;;2.30;1.50;;;;;;;28.27;22.50;101147.20;103954;277;39459;-74
2023/05/21 10:35:24;;;;;;;5.40;1.60;;;;;;;28.14;23.08;101147.85;103931;277;38247;-74
2023/05/21 10:38:03;;;;;;;3.50;1.80;;;;;;;28.00;22.61;101144.23;103981;277;38259;-75
2023/05/21 10:40:37;;;;;;;4.00;2.00;;;;;;;27.85;23.03;101137.13;103952;277;38473;-78
2023/05/21 10:43:37;;;;;;;2.00;1.70;;;;;;;27.79;23.25;101148.10;103972;277;39690;-74
2023/05/21 10:46:26;;;;;;;4.00;2.00;;;;;;;27.60;23.14;101139.41;103983;277;38426;-75
2023/05/21 10:49:16;;;;;;;4.40;1.80;;;;;;;27.51;23.74;101142.00;103973;277;38207;-76
2023/05/21 10:51:57;;;;;;;3.50;1.90;;;;;;;27.47;23.79;101142.65;104018;277;39949;-75
2023/05/21 10:54:53;;;;;;;2.70;1.70;;;;;;;27.22;23.68;101134.03;103684;277;174394;-74
2023/05/21 10:58:00;;;;;;;4.30;1.80;;;;;;;27.11;24.74;101131.77;104031;277;39424;-74
2023/05/21 11:00:36;;;;;;;2.20;1.80;;;;;;;27.05;24.16;101133.25;103975;277;39871;-74
2023/05/21 11:03:12;;;;;;;3.30;2.10;;;;;;;26.84;24.31;101129.45;103953;277;39193;-75
2023/05/21 11:05:59;;;;;;;3.00;1.90;;;;;;;26.74;24.91;101126.48;103974;277;39454;-76
2023/05/21 11:08:37;;;;;;;4.50;1.90;;;;;;;26.65;24.95;101127.87;103725;277;38446;-77
2023/05/21 11:11:13;;;;;;;4.50;2.00;;;;;;;26.46;25.11;101123.90;103969;277;38401;-76
2023/05/21 11:13:56;;;;;;;3.40;1.70;;;;;;;26.37;25.29;101121.33;103833;278;38661;-73
2023/05/21 11:16:31;;;;;;;5.90;1.80;;;;;;;26.36;25.82;101117.98;103746;279;38263;-75
2023/05/21 11:19:18;;;;;;;4.20;1.90;;;;;;;26.28;25.53;101113.16;104027;277;38236;-76
2023/05/21 11:21:56;;;;;;;3.30;2.00;;;;;;;26.16;25.88;101110.34;103978;277;38558;-74
2023/05/21 11:24:31;;;;;;;3.80;1.80;;;;;;;26.11;26.43;101106.39;104026;277;39955;-74
2023/05/21 11:27:08;;;;;;;3.00;2.20;;;;;;;26.06;26.53;101106.64;103681;277;174519;-74
2023/05/21 11:29:47;;;;;;;4.60;1.90;;;;;;;26.04;26.32;101101.35;103985;277;38552;-76
2023/05/21 11:32:24;;;;;;;;;;;;;;;26.01;26.03;101106.58;103786;277;39652;-73
2023/05/21 11:35:05;;;;;;;3.50;2.00;;;;;;;25.86;25.47;101107.27;103796;277;38238;-73
2023/05/21 11:37:47;;;;;;;3.20;1.80;;;;;;;25.76;25.70;101102.98;103981;277;38487;-73
2023/05/21 11:40:29;;;;;;;3.80;1.70;;;;;;;25.71;26.53;101108.23;103933;277;39862;-73
2023/05/21 11:43:05;;;;;;;3.10;2.00;;;;;;;25.70;26.40;101106.10;103894;277;39677;-75
2023/05/21 11:45:45;;;;;;;4.60;2.20;;;;;;;25.68;26.00;101113.31;103915;277;39673;-75
2023/05/21 11:48:20;;;;;;;2.70;2.10;;;;;;;25.59;26.52;101110.73;103949;277;38275;-77
2023/05/21 11:50:57;;;;;;;2.20;1.50;;;;;;;25.54;26.38;101106.58;103833;277;174472;-76
2023/05/21 11:53:38;;;;;;;5.10;2.10;;;;;;;25.44;26.25;101107.55;103256;278;701302;-75
2023/05/21 11:56:14;;;;;;;2.70;2.00;;;;;;;25.36;26.59;101102.95;103708;279;41624;-77
2023/05/21 11:58:55;;;;;;;4.30;2.10;;;;;;;25.29;27.08;101110.73;103829;277;39270;-74
2023/05/21 12:01:30;;;;;;;3.80;2.10;;;;;;;25.18;27.10;101107.60;103918;277;38241;-74
2023/05/21 12:04:07;;;;;;;3.90;1.80;;;;;;;25.09;27.08;101100.27;103919;277;38273;-75
2023/05/21 12:06:44;;;;;;;2.70;2.00;;;;;;;25.05;27.65;101100.33;103790;277;38390;-77
2023/05/21 12:09:25;;;;;;;2.60;1.90;;;;;;;24.98;27.98;101099.98;103905;277;38269;-80
2023/05/21 12:12:05;;;;;;;3.60;1.80;;;;;;;25.01;28.06;101096.20;103960;265;39450;-76